Time;durP1;ratioP1;P1;durP2;ratioP2;P2;SDS_P1;SDS_P2;PMS_P1;PMS_P2;Temp;Humidity;BMP_temperature;BMP_pressure;BME280_temperature;BME280_humidity;BME280_pressure;Samples;Min_cycle;Max_cycle;Signal;HPM_P1;HPM_P2
2021/10/14 00:01:49;;;;;;;12.95;7.10;;;;;;;;;;4938985;28;20041;-58
2021/10/14 00:04:14;;;;;;;17.00;8.40;;;;;;;;;;4946677;28;20033;-58
2021/10/14 00:06:39;;;;;;;14.77;9.18;;;;;;;;;;4933890;28;20035;-58
2021/10/14 00:09:05;;;;;;;11.70;7.95;;;;;;;;;;4944434;28;20054;-58
2021/10/14 00:11:30;;;;;;;17.40;7.97;;;;;;;;;;4940260;28;20057;-59
2021/10/14 00:13:55;;;;;;;16.40;8.20;;;;;;;;;;4945748;28;20038;-59
2021/10/14 00:16:20;;;;;;;14.60;8.75;;;;;;;;;;4941953;28;20039;-59
2021/10/14 00:18:46;;;;;;;17.67;9.18;;;;;;;;;;4943996;29;20035;-59
2021/10/14 00:21:11;;;;;;;15.70;8.88;;;;;;;;;;4944845;28;20039;-58
2021/10/14 00:23:36;;;;;;;14.05;7.68;;;;;;;;;;4944099;28;20031;-57
2021/10/14 00:26:01;;;;;;;16.48;8.77;;;;;;;;;;4940352;28;20047;-58
2021/10/14 00:28:26;;;;;;;14.30;9.02;;;;;;;;;;4939418;28;20086;-59
2021/10/14 00:30:52;;;;;;;18.27;8.32;;;;;;;;;;4939171;28;20054;-59
2021/10/14 00:33:17;;;;;;;22.58;10.95;;;;;;;;;;4952338;28;20244;-59
2021/10/14 00:35:42;;;;;;;14.90;8.98;;;;;;;;;;4938379;28;20118;-59
2021/10/14 00:38:07;;;;;;;19.10;8.98;;;;;;;;;;4946715;28;20043;-59
2021/10/14 00:40:33;;;;;;;11.93;8.70;;;;;;;;;;4936149;28;20505;-58
2021/10/14 00:42:58;;;;;;;19.40;10.27;;;;;;;;;;4946511;28;20555;-59
2021/10/14 00:45:23;;;;;;;17.10;9.82;;;;;;;;;;4941461;28;20054;-59
2021/10/14 00:47:49;;;;;;;21.13;9.82;;;;;;;;;;4944445;28;20031;-59
2021/10/14 00:50:14;;;;;;;17.10;10.35;;;;;;;;;;4942472;28;20027;-58
2021/10/14 00:52:40;;;;;;;17.15;10.05;;;;;;;;;;4933679;28;20024;-59
2021/10/14 00:55:05;;;;;;;18.42;9.80;;;;;;;;;;4950297;28;20069;-58
2021/10/14 00:57:31;;;;;;;16.85;9.25;;;;;;;;;;4935478;28;20024;-59
2021/10/14 00:59:56;;;;;;;15.77;10.00;;;;;;;;;;4943037;28;20462;-59
2021/10/14 01:02:21;;;;;;;16.50;9.52;;;;;;;;;;4939103;28;20102;-59
2021/10/14 01:04:46;;;;;;;16.08;10.07;;;;;;;;;;4940251;28;20063;-58
2021/10/14 01:07:12;;;;;;;21.35;11.73;;;;;;;;;;4943685;28;20031;-58
2021/10/14 01:09:39;;;;;;;17.30;8.93;;;;;;;;;;4940681;28;20019;-59
2021/10/14 01:12:04;;;;;;;14.20;9.52;;;;;;;;;;4944732;28;20070;-58
2021/10/14 01:14:30;;;;;;;13.82;8.18;;;;;;;;;;4939368;28;20047;-59
2021/10/14 01:16:55;;;;;;;15.57;10.40;;;;;;;;;;4940523;28;20043;-59
2021/10/14 01:19:20;;;;;;;11.90;7.97;;;;;;;;;;4941257;28;20039;-59
2021/10/14 01:21:46;;;;;;;18.52;10.55;;;;;;;;;;4943781;28;20035;-58
2021/10/14 01:24:11;;;;;;;17.08;9.00;;;;;;;;;;4928717;29;20035;-58
2021/10/14 01:26:38;;;;;;;17.63;9.02;;;;;;;;;;4944149;28;20126;-58
2021/10/14 01:29:03;;;;;;;19.63;10.75;;;;;;;;;;4949023;28;20058;-59
2021/10/14 01:31:28;;;;;;;16.23;9.80;;;;;;;;;;4939854;28;20043;-58
2021/10/14 01:33:54;;;;;;;19.65;10.63;;;;;;;;;;4945135;28;20062;-58
2021/10/14 01:36:19;;;;;;;17.35;8.02;;;;;;;;;;4947275;28;20047;-59
2021/10/14 01:38:44;;;;;;;23.42;11.57;;;;;;;;;;4939366;29;20111;-61
2021/10/14 01:41:09;;;;;;;18.02;11.02;;;;;;;;;;4946576;28;20042;-58
2021/10/14 01:43:35;;;;;;;17.50;10.90;;;;;;;;;;4962459;28;20035;-58
2021/10/14 01:46:00;;;;;;;14.35;9.27;;;;;;;;;;4946762;28;21247;-58
2021/10/14 01:48:27;;;;;;;15.45;8.82;;;;;;;;;;4936369;28;20098;-58
2021/10/14 01:50:53;;;;;;;19.27;11.25;;;;;;;;;;4940528;28;20051;-58
2021/10/14 01:53:18;;;;;;;17.83;10.50;;;;;;;;;;4944796;28;20027;-58
2021/10/14 01:55:43;;;;;;;14.95;9.90;;;;;;;;;;4946600;28;20047;-58
2021/10/14 01:58:08;;;;;;;16.30;9.48;;;;;;;;;;4946082;28;20027;-58
2021/10/14 02:00:34;;;;;;;20.83;8.95;;;;;;;;;;4945366;28;20503;-58
2021/10/14 02:02:59;;;;;;;16.15;8.85;;;;;;;;;;4940896;29;20379;-59
2021/10/14 02:05:24;;;;;;;11.30;7.32;;;;;;;;;;4944938;28;20035;-58
2021/10/14 02:07:49;;;;;;;15.75;8.80;;;;;;;;;;4948259;28;20030;-58
2021/10/14 02:10:14;;;;;;;17.27;8.02;;;;;;;;;;4943585;28;20031;-58
2021/10/14 02:12:40;;;;;;;16.63;9.27;;;;;;;;;;4939881;28;20048;-58
2021/10/14 02:15:05;;;;;;;17.25;9.68;;;;;;;;;;4953479;28;20039;-58
2021/10/14 02:17:30;;;;;;;20.65;10.35;;;;;;;;;;4946799;28;20056;-58
2021/10/14 02:19:55;;;;;;;19.67;9.20;;;;;;;;;;4947194;28;20106;-59
2021/10/14 02:22:21;;;;;;;22.55;10.70;;;;;;;;;;4944445;28;20067;-59
2021/10/14 02:24:46;;;;;;;18.02;8.93;;;;;;;;;;4954470;28;20110;-59
2021/10/14 02:27:11;;;;;;;16.90;10.32;;;;;;;;;;4949162;28;20126;-59
2021/10/14 02:29:36;;;;;;;15.88;9.20;;;;;;;;;;4948807;28;20030;-58
2021/10/14 02:32:01;;;;;;;15.93;9.68;;;;;;;;;;4940997;28;20039;-58
2021/10/14 02:34:27;;;;;;;14.38;8.90;;;;;;;;;;4950873;28;20097;-58
2021/10/14 02:36:52;;;;;;;21.63;11.38;;;;;;;;;;4935512;28;20094;-58
2021/10/14 02:39:17;;;;;;;15.18;9.70;;;;;;;;;;4943997;28;20023;-58
2021/10/14 02:41:42;;;;;;;18.42;9.88;;;;;;;;;;4954261;28;20043;-58
2021/10/14 02:44:07;;;;;;;21.48;9.80;;;;;;;;;;4936239;29;20659;-58
2021/10/14 02:46:33;;;;;;;14.50;9.82;;;;;;;;;;4944646;28;20478;-59
2021/10/14 02:48:58;;;;;;;24.35;12.43;;;;;;;;;;4947336;29;20500;-58
2021/10/14 02:51:23;;;;;;;19.33;9.88;;;;;;;;;;4947646;28;20754;-58
2021/10/14 02:53:48;;;;;;;21.60;10.95;;;;;;;;;;4938569;28;20027;-58
2021/10/14 02:56:13;;;;;;;21.95;12.00;;;;;;;;;;4945217;28;20043;-58
2021/10/14 02:58:39;;;;;;;18.80;11.23;;;;;;;;;;4943534;28;20035;-58
2021/10/14 03:01:04;;;;;;;21.92;10.25;;;;;;;;;;4947232;28;20394;-58
2021/10/14 03:03:31;;;;;;;23.70;12.60;;;;;;;;;;4937216;28;20410;-58
2021/10/14 03:05:56;;;;;;;22.20;13.10;;;;;;;;;;4938768;28;20067;-58
2021/10/14 03:08:21;;;;;;;19.27;11.50;;;;;;;;;;4944167;28;20066;-58
2021/10/14 03:10:47;;;;;;;24.88;13.40;;;;;;;;;;4953407;28;20049;-58
2021/10/14 03:13:12;;;;;;;21.05;10.95;;;;;;;;;;4942210;28;20061;-59
2021/10/14 03:15:37;;;;;;;17.15;11.95;;;;;;;;;;4943770;28;20046;-58
2021/10/14 03:18:02;;;;;;;18.63;11.82;;;;;;;;;;4948264;28;20035;-59
2021/10/14 03:20:27;;;;;;;22.35;12.15;;;;;;;;;;4949174;28;20096;-58
2021/10/14 03:22:53;;;;;;;18.27;12.55;;;;;;;;;;4946030;28;20082;-59
2021/10/14 03:25:18;;;;;;;19.98;9.80;;;;;;;;;;4944842;28;20023;-58
2021/10/14 03:27:43;;;;;;;20.85;13.00;;;;;;;;;;4941692;28;20486;-58
2021/10/14 03:30:08;;;;;;;24.08;11.68;;;;;;;;;;4938754;28;20486;-58
2021/10/14 03:32:34;;;;;;;23.38;12.02;;;;;;;;;;4947248;28;20046;-58
2021/10/14 03:34:59;;;;;;;25.75;13.77;;;;;;;;;;4942911;28;20045;-58
2021/10/14 03:37:24;;;;;;;17.13;11.30;;;;;;;;;;4947407;28;20043;-59
2021/10/14 03:39:49;;;;;;;23.58;12.52;;;;;;;;;;4944379;28;20031;-58
2021/10/14 03:42:16;;;;;;;20.55;12.18;;;;;;;;;;4940976;28;20031;-58
2021/10/14 03:44:41;;;;;;;27.00;13.02;;;;;;;;;;4946650;28;20023;-58
2021/10/14 03:47:06;;;;;;;21.75;11.38;;;;;;;;;;4946746;28;20054;-58
2021/10/14 03:49:32;;;;;;;23.35;14.52;;;;;;;;;;4946317;28;20043;-58
2021/10/14 03:51:57;;;;;;;22.73;14.02;;;;;;;;;;4946517;28;20855;-58
2021/10/14 03:54:22;;;;;;;23.17;13.65;;;;;;;;;;4947269;28;20478;-58
2021/10/14 03:56:47;;;;;;;24.85;14.15;;;;;;;;;;4943480;28;20043;-58
2021/10/14 03:59:12;;;;;;;19.05;9.18;;;;;;;;;;4937555;29;20086;-58
2021/10/14 04:01:38;;;;;;;23.52;11.90;;;;;;;;;;4960235;28;20039;-58
2021/10/14 04:04:03;;;;;;;21.63;12.90;;;;;;;;;;4947186;28;20030;-58
2021/10/14 04:06:28;;;;;;;24.13;14.98;;;;;;;;;;4944752;28;20106;-58
2021/10/14 04:08:53;;;;;;;23.65;12.60;;;;;;;;;;4936907;28;20027;-58
2021/10/14 04:11:19;;;;;;;26.60;15.07;;;;;;;;;;4940822;28;20110;-58
2021/10/14 04:13:44;;;;;;;24.50;12.20;;;;;;;;;;4940765;28;20041;-58
2021/10/14 04:16:09;;;;;;;31.42;15.50;;;;;;;;;;4944822;28;20133;-58
2021/10/14 04:18:36;;;;;;;26.35;12.65;;;;;;;;;;4932610;28;20058;-58
2021/10/14 04:21:02;;;;;;;27.63;15.27;;;;;;;;;;4941630;28;20062;-59
2021/10/14 04:23:27;;;;;;;30.85;16.67;;;;;;;;;;4948128;28;20031;-57
2021/10/14 04:25:52;;;;;;;27.25;16.13;;;;;;;;;;4939689;28;20121;-58
2021/10/14 04:28:17;;;;;;;33.15;17.13;;;;;;;;;;4947619;28;20078;-58
2021/10/14 04:30:43;;;;;;;34.58;16.40;;;;;;;;;;4944247;28;20498;-58
2021/10/14 04:33:09;;;;;;;28.65;16.27;;;;;;;;;;4942490;28;20515;-58
2021/10/14 04:35:34;;;;;;;29.05;15.57;;;;;;;;;;4945689;28;20047;-58
2021/10/14 04:37:59;;;;;;;25.42;16.30;;;;;;;;;;4937686;29;20032;-58
2021/10/14 04:40:24;;;;;;;29.17;15.82;;;;;;;;;;4937691;28;20049;-58
2021/10/14 04:42:49;;;;;;;27.33;16.63;;;;;;;;;;4937717;28;20035;-58
2021/10/14 04:45:16;;;;;;;26.90;15.23;;;;;;;;;;4945423;28;20035;-58
2021/10/14 04:47:41;;;;;;;25.85;15.60;;;;;;;;;;4945686;28;20106;-58
2021/10/14 04:50:07;;;;;;;21.10;13.15;;;;;;;;;;4940508;28;20111;-58
2021/10/14 04:52:32;;;;;;;28.55;17.77;;;;;;;;;;4939113;28;20024;-58
2021/10/14 04:54:58;;;;;;;27.02;15.88;;;;;;;;;;4947448;28;20027;-58
2021/10/14 04:57:23;;;;;;;30.17;16.88;;;;;;;;;;4947266;28;20035;-58
2021/10/14 04:59:48;;;;;;;28.42;16.35;;;;;;;;;;4951343;28;20039;-58
2021/10/14 05:02:13;;;;;;;26.58;15.77;;;;;;;;;;4946991;28;20040;-58
2021/10/14 05:04:39;;;;;;;32.70;16.55;;;;;;;;;;4945145;29;20023;-58
2021/10/14 05:07:04;;;;;;;27.08;16.42;;;;;;;;;;4950705;28;20039;-58
2021/10/14 05:09:29;;;;;;;28.98;16.85;;;;;;;;;;4956218;28;20102;-58
2021/10/14 05:11:55;;;;;;;29.42;17.08;;;;;;;;;;4946071;28;20066;-58
2021/10/14 05:14:20;;;;;;;29.83;17.17;;;;;;;;;;4942663;28;20138;-58
2021/10/14 05:16:45;;;;;;;29.58;15.93;;;;;;;;;;4943950;28;20114;-58
2021/10/14 05:19:11;;;;;;;27.33;15.38;;;;;;;;;;4951271;28;20035;-58
2021/10/14 05:21:36;;;;;;;24.88;14.02;;;;;;;;;;4958501;28;21759;-62
2021/10/14 05:24:02;;;;;;;29.52;16.55;;;;;;;;;;4943367;28;20032;-58
2021/10/14 05:26:27;;;;;;;26.20;16.02;;;;;;;;;;4951358;28;20391;-58
2021/10/14 05:28:53;;;;;;;28.75;17.27;;;;;;;;;;4944390;28;20115;-58
2021/10/14 05:31:18;;;;;;;29.63;14.98;;;;;;;;;;4940076;28;20074;-58
2021/10/14 05:33:44;;;;;;;27.73;15.43;;;;;;;;;;4947964;28;20030;-58
2021/10/14 05:36:09;;;;;;;27.65;15.73;;;;;;;;;;4950899;28;20038;-58
2021/10/14 05:38:34;;;;;;;26.45;14.75;;;;;;;;;;4945754;28;20024;-57
2021/10/14 05:40:59;;;;;;;31.45;15.07;;;;;;;;;;4945617;28;20413;-58
2021/10/14 05:43:24;;;;;;;28.02;15.13;;;;;;;;;;4947318;28;20023;-58
2021/10/14 05:45:50;;;;;;;26.35;13.88;;;;;;;;;;4945915;28;20077;-59
2021/10/14 05:48:15;;;;;;;27.83;15.02;;;;;;;;;;4949651;28;20093;-58
2021/10/14 05:50:40;;;;;;;29.15;16.05;;;;;;;;;;4945700;28;20049;-59
2021/10/14 05:53:05;;;;;;;28.08;14.57;;;;;;;;;;4940656;28;20019;-58
2021/10/14 05:55:31;;;;;;;27.80;16.60;;;;;;;;;;4946470;28;20043;-58
2021/10/14 05:57:58;;;;;;;32.03;16.80;;;;;;;;;;4944757;28;20042;-58
2021/10/14 06:00:23;;;;;;;28.00;15.15;;;;;;;;;;4942951;28;20548;-58
2021/10/14 06:02:49;;;;;;;30.40;16.90;;;;;;;;;;4943885;29;20046;-59
2021/10/14 06:05:14;;;;;;;29.17;15.57;;;;;;;;;;4939807;28;20542;-57
2021/10/14 06:07:39;;;;;;;27.65;14.90;;;;;;;;;;4947640;28;20049;-58
2021/10/14 06:10:05;;;;;;;31.95;16.98;;;;;;;;;;4944190;28;20530;-59
2021/10/14 06:12:30;;;;;;;32.72;19.00;;;;;;;;;;4938621;28;20564;-57
2021/10/14 06:14:55;;;;;;;37.83;20.77;;;;;;;;;;4934356;28;20040;-61
2021/10/14 06:17:21;;;;;;;28.25;17.05;;;;;;;;;;4947295;28;20521;-62
2021/10/14 06:19:46;;;;;;;35.97;20.90;;;;;;;;;;4947447;28;20114;-60
2021/10/14 06:22:11;;;;;;;31.77;17.25;;;;;;;;;;4945898;28;20039;-59
2021/10/14 06:24:36;;;;;;;33.05;18.10;;;;;;;;;;4947763;28;20485;-58
2021/10/14 06:27:02;;;;;;;30.88;16.42;;;;;;;;;;4944390;28;20094;-58
2021/10/14 06:29:27;;;;;;;26.23;15.05;;;;;;;;;;4948142;28;20551;-58
2021/10/14 06:31:52;;;;;;;29.23;15.45;;;;;;;;;;4947129;28;20494;-61
2021/10/14 06:34:17;;;;;;;31.98;16.90;;;;;;;;;;4941963;28;20044;-58
2021/10/14 06:36:45;;;;;;;27.45;15.02;;;;;;;;;;4942251;28;20035;-58
2021/10/14 06:39:10;;;;;;;29.25;14.98;;;;;;;;;;4936171;28;20028;-58
2021/10/14 06:41:36;;;;;;;23.30;13.50;;;;;;;;;;4947666;28;20050;-58
2021/10/14 06:44:01;;;;;;;36.47;18.25;;;;;;;;;;4942233;28;20027;-60
2021/10/14 06:46:26;;;;;;;26.13;15.80;;;;;;;;;;4943552;28;20059;-58
2021/10/14 06:48:51;;;;;;;26.83;15.77;;;;;;;;;;4945113;29;20022;-59
2021/10/14 06:51:17;;;;;;;26.65;13.63;;;;;;;;;;4943589;28;20040;-59
2021/10/14 06:53:42;;;;;;;28.67;15.00;;;;;;;;;;4946181;28;20034;-59
2021/10/14 06:56:07;;;;;;;27.45;16.02;;;;;;;;;;4949879;28;20043;-59
2021/10/14 06:58:32;;;;;;;18.23;9.82;;;;;;;;;;4946576;28;20028;-59
2021/10/14 07:00:58;;;;;;;28.35;16.33;;;;;;;;;;4939950;28;20046;-57
2021/10/14 07:03:23;;;;;;;25.83;15.23;;;;;;;;;;4948472;29;20035;-58
2021/10/14 07:05:48;;;;;;;29.52;15.70;;;;;;;;;;4937840;28;20102;-58
2021/10/14 07:08:14;;;;;;;27.33;16.23;;;;;;;;;;4945481;28;20378;-58
2021/10/14 07:10:44;;;;;;;31.88;17.75;;;;;;;;;;4943818;28;20043;-58
2021/10/14 07:13:09;;;;;;;27.42;16.52;;;;;;;;;;4945626;28;20082;-58
2021/10/14 07:15:35;;;;;;;26.00;15.63;;;;;;;;;;4937817;28;20823;-58
2021/10/14 07:18:00;;;;;;;27.52;14.90;;;;;;;;;;4943855;29;20026;-57
2021/10/14 07:20:25;;;;;;;24.35;16.15;;;;;;;;;;4936832;28;20487;-58
2021/10/14 07:22:50;;;;;;;26.30;16.52;;;;;;;;;;4949036;28;20452;-58
2021/10/14 07:25:16;;;;;;;26.52;16.50;;;;;;;;;;4948565;28;20023;-58
2021/10/14 07:27:41;;;;;;;21.63;13.20;;;;;;;;;;4942317;28;20521;-58
2021/10/14 07:30:07;;;;;;;24.25;16.05;;;;;;;;;;4941610;28;20031;-58
2021/10/14 07:32:32;;;;;;;24.55;14.98;;;;;;;;;;4944663;28;20027;-58
2021/10/14 07:34:57;;;;;;;22.65;13.88;;;;;;;;;;4948879;28;20038;-57
2021/10/14 07:37:22;;;;;;;24.35;13.52;;;;;;;;;;4942282;28;20031;-58
2021/10/14 07:39:48;;;;;;;25.52;12.63;;;;;;;;;;4949188;28;20031;-58
2021/10/14 07:42:13;;;;;;;22.33;12.88;;;;;;;;;;4948580;28;20142;-58
2021/10/14 07:44:38;;;;;;;29.05;13.60;;;;;;;;;;4942217;28;20724;-58
2021/10/14 07:47:04;;;;;;;24.73;11.93;;;;;;;;;;4950624;28;20397;-58
2021/10/14 07:49:29;;;;;;;18.08;11.82;;;;;;;;;;4934206;29;20049;-58
2021/10/14 07:51:55;;;;;;;23.45;12.40;;;;;;;;;;4947411;28;20036;-57
2021/10/14 07:54:20;;;;;;;18.42;11.10;;;;;;;;;;4949060;28;20401;-57
2021/10/14 07:56:45;;;;;;;17.90;11.20;;;;;;;;;;4946498;28;20043;-58
2021/10/14 07:59:10;;;;;;;20.27;11.65;;;;;;;;;;4944265;28;20079;-57
2021/10/14 08:01:36;;;;;;;21.08;11.88;;;;;;;;;;4948750;28;20071;-57
2021/10/14 08:04:02;;;;;;;24.90;15.15;;;;;;;;;;4961489;28;20460;-57
2021/10/14 08:06:27;;;;;;;23.38;11.15;;;;;;;;;;4945744;28;20468;-57
2021/10/14 08:08:52;;;;;;;16.60;10.13;;;;;;;;;;4947917;28;20114;-57
2021/10/14 08:11:17;;;;;;;24.02;12.50;;;;;;;;;;4947136;28;20533;-59
2021/10/14 08:13:43;;;;;;;23.45;13.20;;;;;;;;;;4948515;29;20027;-57
2021/10/14 08:16:08;;;;;;;22.92;12.68;;;;;;;;;;4947838;28;20050;-57
2021/10/14 08:18:33;;;;;;;20.40;11.70;;;;;;;;;;4943953;28;20038;-57
2021/10/14 08:20:59;;;;;;;21.65;13.00;;;;;;;;;;4940129;28;20035;-60
2021/10/14 08:23:24;;;;;;;21.95;12.48;;;;;;;;;;4945768;28;20019;-58
2021/10/14 08:25:49;;;;;;;21.95;12.40;;;;;;;;;;4947002;28;20485;-58
2021/10/14 08:28:15;;;;;;;24.95;12.57;;;;;;;;;;4939981;28;20382;-59
2021/10/14 08:30:40;;;;;;;15.95;10.65;;;;;;;;;;4939949;28;20045;-59
2021/10/14 08:33:05;;;;;;;22.25;12.18;;;;;;;;;;4943678;28;20023;-58
2021/10/14 08:35:35;;;;;;;21.65;12.95;;;;;;;;;;4939331;28;20066;-58
2021/10/14 08:38:01;;;;;;;25.23;10.05;;;;;;;;;;4942558;28;20144;-58
2021/10/14 08:40:26;;;;;;;21.50;12.02;;;;;;;;;;4947675;28;20133;-58
2021/10/14 08:42:52;;;;;;;20.08;12.48;;;;;;;;;;4942667;28;20032;-57
2021/10/14 08:45:17;;;;;;;23.10;12.48;;;;;;;;;;4934643;28;20181;-57
2021/10/14 08:47:42;;;;;;;19.75;12.32;;;;;;;;;;4944474;28;20024;-58
2021/10/14 08:50:08;;;;;;;20.88;12.55;;;;;;;;;;4947611;28;20026;-58
2021/10/14 08:52:33;;;;;;;18.27;10.50;;;;;;;;;;4944398;28;20045;-58
2021/10/14 08:54:58;;;;;;;21.23;9.88;;;;;;;;;;4938529;28;20110;-58
2021/10/14 08:57:23;;;;;;;22.42;12.23;;;;;;;;;;4946906;28;20506;-58
2021/10/14 08:59:49;;;;;;;23.05;12.30;;;;;;;;;;4948017;28;20039;-58
2021/10/14 09:02:15;;;;;;;18.35;10.93;;;;;;;;;;4945171;28;20640;-58
2021/10/14 09:04:41;;;;;;;21.08;12.25;;;;;;;;;;4942110;28;20035;-58
2021/10/14 09:07:09;;;;;;;21.63;11.93;;;;;;;;;;4943532;28;20035;-58
2021/10/14 09:09:35;;;;;;;26.75;11.80;;;;;;;;;;4934649;28;20027;-58
2021/10/14 09:12:04;;;;;;;20.80;9.48;;;;;;;;;;4945698;28;20062;-57
2021/10/14 09:14:29;;;;;;;21.02;10.80;;;;;;;;;;4945681;29;20106;-59
2021/10/14 09:16:54;;;;;;;20.00;10.05;;;;;;;;;;4947354;28;20138;-60
2021/10/14 09:19:21;;;;;;;21.88;12.27;;;;;;;;;;4938056;28;20035;-58
2021/10/14 09:21:47;;;;;;;16.95;10.98;;;;;;;;;;4947111;28;20035;-58
2021/10/14 09:24:22;;;;;;;20.25;12.48;;;;;;;;;;4944633;28;20034;-58
2021/10/14 09:26:47;;;;;;;18.33;10.48;;;;;;;;;;4938757;28;20117;-60
2021/10/14 09:29:13;;;;;;;18.45;11.23;;;;;;;;;;4941342;28;20035;-58
2021/10/14 09:31:45;;;;;;;21.02;11.25;;;;;;;;;;4946691;28;20035;-58
2021/10/14 09:34:21;;;;;;;18.58;11.13;;;;;;;;;;4943193;29;20035;-58
2021/10/14 09:36:47;;;;;;;23.70;10.93;;;;;;;;;;4947861;28;20047;-58
2021/10/14 09:39:12;;;;;;;19.80;10.85;;;;;;;;;;4947302;28;20081;-58
2021/10/14 09:41:38;;;;;;;22.50;10.32;;;;;;;;;;4944321;28;20067;-59
2021/10/14 09:44:07;;;;;;;17.75;11.35;;;;;;;;;;4941882;28;20027;-58
2021/10/14 09:46:34;;;;;;;20.70;9.95;;;;;;;;;;4944006;28;20043;-58
2021/10/14 09:48:59;;;;;;;17.55;11.00;;;;;;;;;;4946872;29;20031;-59
2021/10/14 09:51:25;;;;;;;18.33;11.38;;;;;;;;;;4950717;28;20094;-59
2021/10/14 09:53:50;;;;;;;18.02;10.20;;;;;;;;;;4939752;28;20027;-59
2021/10/14 09:56:15;;;;;;;18.67;10.48;;;;;;;;;;4949324;28;20078;-59
2021/10/14 09:58:40;;;;;;;17.98;10.18;;;;;;;;;;4949724;29;20019;-58
2021/10/14 10:01:06;;;;;;;16.38;9.23;;;;;;;;;;4942507;28;20043;-58
2021/10/14 10:03:32;;;;;;;16.95;10.38;;;;;;;;;;4948644;29;20030;-59
2021/10/14 10:06:01;;;;;;;21.95;11.20;;;;;;;;;;4929809;28;20046;-58
2021/10/14 10:08:33;;;;;;;16.27;8.07;;;;;;;;;;4941541;28;20023;-59
2021/10/14 10:11:08;;;;;;;13.10;7.47;;;;;;;;;;4947797;28;20405;-58
2021/10/14 10:13:33;;;;;;;15.98;8.40;;;;;;;;;;4948975;29;20077;-59
2021/10/14 10:16:18;;;;;;;15.57;8.88;;;;;;;;;;4945388;28;20082;-61
2021/10/14 10:18:44;;;;;;;15.32;9.10;;;;;;;;;;4944539;29;20027;-59
2021/10/14 10:21:29;;;;;;;21.05;8.82;;;;;;;;;;4937311;28;20035;-59
2021/10/14 10:23:54;;;;;;;14.73;8.15;;;;;;;;;;4941567;28;20031;-59
2021/10/14 10:26:35;;;;;;;14.57;8.85;;;;;;;;;;4947772;28;20035;-60
2021/10/14 10:29:12;;;;;;;18.95;8.90;;;;;;;;;;4941558;28;20038;-58
2021/10/14 10:31:51;;;;;;;18.42;8.98;;;;;;;;;;4955514;28;20039;-59
2021/10/14 10:34:42;;;;;;;13.50;7.88;;;;;;;;;;4942676;28;20091;-59
2021/10/14 10:37:10;;;;;;;14.07;7.95;;;;;;;;;;4946904;28;20047;-57
2021/10/14 10:39:40;;;;;;;15.23;8.07;;;;;;;;;;4945690;29;20470;-58
2021/10/14 10:42:12;;;;;;;14.90;8.35;;;;;;;;;;4945492;28;20031;-58
2021/10/14 10:44:41;;;;;;;16.33;8.48;;;;;;;;;;4943570;28;20038;-60
2021/10/14 10:47:26;;;;;;;12.75;7.97;;;;;;;;;;4945572;28;20035;-59
2021/10/14 10:49:54;;;;;;;12.57;7.60;;;;;;;;;;4942476;29;20730;-59
2021/10/14 10:52:32;;;;;;;13.82;7.18;;;;;;;;;;4941995;28;20673;-59
2021/10/14 10:55:01;;;;;;;14.10;7.63;;;;;;;;;;4945224;28;20075;-58
2021/10/14 10:57:45;;;;;;;9.45;6.53;;;;;;;;;;4939839;28;20040;-58
2021/10/14 11:00:11;;;;;;;13.27;7.30;;;;;;;;;;4941980;28;20054;-59
2021/10/14 11:02:36;;;;;;;14.35;7.47;;;;;;;;;;4942454;28;20471;-58
2021/10/14 11:05:01;;;;;;;17.15;8.32;;;;;;;;;;4950839;28;20098;-58
2021/10/14 11:07:27;;;;;;;20.30;7.97;;;;;;;;;;4946656;28;20039;-59
2021/10/14 11:09:52;;;;;;;11.43;5.47;;;;;;;;;;4945924;28;20027;-60
2021/10/14 11:12:17;;;;;;;13.50;7.35;;;;;;;;;;4941233;28;20578;-59
2021/10/14 11:14:42;;;;;;;10.82;7.00;;;;;;;;;;4943698;29;20050;-59
2021/10/14 11:17:11;;;;;;;18.65;7.53;;;;;;;;;;4947247;28;20523;-57
2021/10/14 11:19:39;;;;;;;13.80;7.50;;;;;;;;;;4947885;28;20462;-58
2021/10/14 11:22:11;;;;;;;12.38;7.28;;;;;;;;;;4939961;28;20335;-58
2021/10/14 11:24:43;;;;;;;13.18;6.93;;;;;;;;;;4945298;29;20261;-58
2021/10/14 11:27:15;;;;;;;12.60;7.07;;;;;;;;;;4957063;28;20043;-58
2021/10/14 11:29:41;;;;;;;12.30;6.60;;;;;;;;;;4946335;28;20242;-58
2021/10/14 11:32:10;;;;;;;15.63;6.30;;;;;;;;;;4939206;28;20602;-59
2021/10/14 11:34:40;;;;;;;8.75;4.78;;;;;;;;;;4934061;28;20284;-57
2021/10/14 11:37:11;;;;;;;10.50;5.38;;;;;;;;;;4946923;28;20043;-58
2021/10/14 11:39:37;;;;;;;12.68;6.85;;;;;;;;;;4944276;28;20027;-58
2021/10/14 11:42:04;;;;;;;14.45;7.15;;;;;;;;;;4946793;28;20050;-58
2021/10/14 11:44:30;;;;;;;16.65;7.03;;;;;;;;;;4945811;28;20117;-58
2021/10/14 11:46:56;;;;;;;13.95;6.65;;;;;;;;;;4943310;28;20040;-58
2021/10/14 11:49:21;;;;;;;20.75;6.57;;;;;;;;;;4941992;28;20153;-59
2021/10/14 11:51:49;;;;;;;12.23;6.93;;;;;;;;;;4948094;28;20039;-58
2021/10/14 11:54:17;;;;;;;11.35;6.72;;;;;;;;;;4938728;28;20114;-59
2021/10/14 11:56:42;;;;;;;14.00;7.30;;;;;;;;;;4947633;28;20074;-58
2021/10/14 11:59:07;;;;;;;13.27;7.28;;;;;;;;;;4948534;28;20058;-58
2021/10/14 12:01:33;;;;;;;13.63;7.47;;;;;;;;;;4943064;28;20039;-59
2021/10/14 12:03:59;;;;;;;11.52;5.72;;;;;;;;;;4943663;28;20172;-58
2021/10/14 12:06:24;;;;;;;11.60;6.85;;;;;;;;;;4946494;28;20046;-59
2021/10/14 12:08:49;;;;;;;10.70;5.90;;;;;;;;;;4941320;28;20035;-59
2021/10/14 12:11:18;;;;;;;14.05;6.20;;;;;;;;;;4947115;28;20035;-58
2021/10/14 12:13:43;;;;;;;11.90;6.10;;;;;;;;;;4955204;28;20070;-59
2021/10/14 12:16:09;;;;;;;11.38;6.03;;;;;;;;;;4945754;28;20079;-59
2021/10/14 12:18:34;;;;;;;12.27;6.45;;;;;;;;;;4944312;28;20019;-59
2021/10/14 12:21:00;;;;;;;11.40;5.63;;;;;;;;;;4947782;28;20039;-58
2021/10/14 12:23:29;;;;;;;12.65;5.60;;;;;;;;;;4946311;29;20019;-59
2021/10/14 12:26:10;;;;;;;15.50;6.18;;;;;;;;;;4942286;28;20152;-58
2021/10/14 12:28:35;;;;;;;12.88;6.60;;;;;;;;;;4939729;28;20667;-59
2021/10/14 12:31:07;;;;;;;11.25;5.63;;;;;;;;;;4944413;28;20054;-57
2021/10/14 12:33:32;;;;;;;9.80;5.28;;;;;;;;;;4940630;28;20094;-57
2021/10/14 12:36:01;;;;;;;10.38;6.13;;;;;;;;;;4946549;28;20051;-57
2021/10/14 12:38:36;;;;;;;9.50;5.47;;;;;;;;;;4943590;29;20114;-57
2021/10/14 12:41:03;;;;;;;13.60;5.90;;;;;;;;;;4939962;28;20036;-58
2021/10/14 12:43:35;;;;;;;8.73;5.80;;;;;;;;;;4941600;28;20023;-58
2021/10/14 12:49:20;;;;;;;14.23;6.03;;;;;;;;;;4951357;28;20047;-59
2021/10/14 12:51:49;;;;;;;11.25;6.10;;;;;;;;;;4944886;28;20082;-59
2021/10/14 12:54:15;;;;;;;11.77;6.03;;;;;;;;;;4928622;28;20685;-59
2021/10/14 12:56:42;;;;;;;12.55;6.05;;;;;;;;;;4945540;28;20035;-59
2021/10/14 12:59:07;;;;;;;11.98;5.65;;;;;;;;;;4945998;28;20070;-58
2021/10/14 13:01:36;;;;;;;11.85;5.68;;;;;;;;;;4942137;28;20482;-58
2021/10/14 13:04:01;;;;;;;13.07;5.63;;;;;;;;;;4934265;29;20032;-59
2021/10/14 13:06:27;;;;;;;12.27;4.80;;;;;;;;;;4947096;28;20051;-59
2021/10/14 13:09:00;;;;;;;10.65;5.30;;;;;;;;;;4934383;28;20050;-58
2021/10/14 13:11:32;;;;;;;9.90;5.57;;;;;;;;;;4942180;28;20426;-61
2021/10/14 13:13:58;;;;;;;14.38;5.72;;;;;;;;;;4936904;29;20387;-59
2021/10/14 13:16:23;;;;;;;12.30;4.70;;;;;;;;;;4941001;28;20606;-59
2021/10/14 13:18:48;;;;;;;11.00;5.03;;;;;;;;;;4936449;28;20704;-58
2021/10/14 13:21:14;;;;;;;13.27;5.55;;;;;;;;;;4947003;28;20557;-59
2021/10/14 13:23:39;;;;;;;8.57;4.97;;;;;;;;;;4950221;28;20030;-59
2021/10/14 13:26:04;;;;;;;11.35;4.72;;;;;;;;;;4947857;28;20058;-57
2021/10/14 13:28:31;;;;;;;12.05;4.65;;;;;;;;;;4947341;29;20031;-60
2021/10/14 13:30:57;;;;;;;8.50;4.35;;;;;;;;;;4947694;28;20671;-59
2021/10/14 13:33:22;;;;;;;12.10;4.93;;;;;;;;;;4948016;28;20118;-58
2021/10/14 13:35:48;;;;;;;8.32;4.45;;;;;;;;;;4948400;28;20134;-58
2021/10/14 13:38:13;;;;;;;6.93;4.05;;;;;;;;;;4944186;28;20023;-58
2021/10/14 13:40:41;;;;;;;15.30;4.55;;;;;;;;;;4951576;28;20054;-58
2021/10/14 13:43:12;;;;;;;12.90;4.88;;;;;;;;;;4951985;28;20019;-58
2021/10/14 13:45:37;;;;;;;13.70;4.82;;;;;;;;;;4950582;28;20035;-58
2021/10/14 13:48:03;;;;;;;10.32;4.40;;;;;;;;;;4950798;28;20038;-58
2021/10/14 13:50:28;;;;;;;11.55;4.35;;;;;;;;;;4944717;28;20043;-57
2021/10/14 13:52:53;;;;;;;10.00;4.82;;;;;;;;;;4946291;28;20027;-58
2021/10/14 13:55:19;;;;;;;8.98;4.53;;;;;;;;;;4939254;28;20101;-57
2021/10/14 13:57:44;;;;;;;10.57;4.20;;;;;;;;;;4938422;28;20134;-60
2021/10/14 14:00:12;;;;;;;7.15;3.92;;;;;;;;;;4945806;28;20965;-58
2021/10/14 14:02:37;;;;;;;9.65;5.07;;;;;;;;;;4950624;29;20035;-58
2021/10/14 14:05:05;;;;;;;12.43;4.70;;;;;;;;;;4949355;28;20031;-58
2021/10/14 14:07:31;;;;;;;10.13;5.00;;;;;;;;;;4945240;28;20062;-58
2021/10/14 14:09:56;;;;;;;10.27;4.63;;;;;;;;;;4946452;28;20066;-59
2021/10/14 14:12:21;;;;;;;8.60;3.95;;;;;;;;;;4945283;28;20050;-59
2021/10/14 14:14:46;;;;;;;9.23;4.13;;;;;;;;;;4951271;28;20039;-59
2021/10/14 14:17:12;;;;;;;8.77;4.25;;;;;;;;;;4939540;28;20035;-59
2021/10/14 14:19:37;;;;;;;11.57;4.20;;;;;;;;;;4936017;29;20217;-59
2021/10/14 14:22:03;;;;;;;10.75;3.92;;;;;;;;;;4947209;28;20172;-59